M/T Arcadia — SY7849 — position and weather

sailwx.info

Track history (hours):
 
Tides and Currents Weather Stations Pressure Air Temp Water Temp Dewpoint Dewpoint Depression Visibility Wind Speed Wind Dir Waves Ship Positions

M/T Arcadia

Last reported at 2017-Mar-27 12:33 UTC. Time now 2017-Mar-29 01:32 UTC.
Position N 37°24' E 023°29'.

Length 76 m; draft 4.5 m.

Type: Tanker. MMSI: 240560000.

Date/timePositionNaut miles runAvg speedWind from/ knotsBaromVisibWave heightAir tempDewpointWater temp
2017-Mar-27 12:33N 37°24' E 023°29'8 8.0
2017-Mar-27 11:32N 37°32' E 023°32'9 9.3
2017-Mar-27 10:33N 37°38' E 023°24'9 8.4
2017-Mar-27 09:32N 37°44' E 023°16'9 8.8
2017-Mar-27 08:33N 37°51' E 023°10'5 4.8
2017-Mar-27 07:28N 37°55' E 023°05'0 0.0
2017-Mar-27 06:34N 37°55' E 023°05'0 0.0
2017-Mar-27 05:34N 37°55' E 023°05'0 0.0
2017-Mar-27 04:34N 37°55' E 023°05'0 0.0
2017-Mar-27 03:28N 37°55' E 023°05'0 0.0
2017-Mar-27 02:34N 37°55' E 023°05'0 0.0
2017-Mar-27 01:28N 37°55' E 023°05'0 0.0
2017-Mar-27 00:34N 37°55' E 023°05'0 0.0
2017-Mar-26 23:10N 37°55' E 023°05'0 0.0
2017-Mar-26 19:22N 37°55' E 023°05'0 0.0
2017-Mar-26 18:16N 37°55' E 023°05'0 0.0
2017-Mar-26 17:22N 37°55' E 023°05'0 0.0
2017-Mar-26 16:28N 37°55' E 023°05'0 0.1
2017-Mar-26 15:33N 37°55' E 023°05'1 0.6
2017-Mar-26 14:33N 37°55' E 023°06'0 0.0
2017-Mar-26 13:30N 37°55' E 023°06'0 0.0
2017-Mar-26 12:33N 37°55' E 023°06'0 0.0
2017-Mar-26 11:33N 37°55' E 023°06'0 0.0
2017-Mar-26 10:28N 37°55' E 023°06'0 0.0
2017-Mar-26 09:19N 37°55' E 023°06'0 0.0
2017-Mar-26 08:31N 37°55' E 023°06'0 0.0
2017-Mar-26 07:28N 37°55' E 023°06'0 0.0
2017-Mar-26 06:31N 37°55' E 023°06'0 0.0
2017-Mar-26 05:28N 37°55' E 023°06'0 0.0
2017-Mar-26 04:25N 37°55' E 023°06'0 0.0
2017-Mar-26 03:31N 37°55' E 023°06'0 0.0
2017-Mar-26 02:19N 37°55' E 023°06'0 0.0
2017-Mar-26 01:22N 37°55' E 023°06'0 0.0
2017-Mar-26 00:28N 37°55' E 023°06'0 0.0
2017-Mar-25 23:19N 37°55' E 023°06'0 0.0
2017-Mar-25 22:31N 37°55' E 023°06'0 0.0
2017-Mar-25 21:31N 37°55' E 023°06'0 0.0
2017-Mar-25 20:25N 37°55' E 023°06'0 0.0
2017-Mar-25 19:31N 37°55' E 023°06'0 0.0
2017-Mar-25 18:31N 37°55' E 023°06'0 0.0
2017-Mar-25 17:31N 37°55' E 023°06'0 0.0
2017-Mar-25 16:31N 37°55' E 023°06'0 0.0
2017-Mar-25 15:31N 37°55' E 023°06'0 0.1
2017-Mar-25 14:31N 37°55' E 023°06'0 0.1
2017-Mar-25 13:28N 37°55' E 023°06'0 0.0
2017-Mar-25 12:31N 37°55' E 023°06'0 0.0
2017-Mar-25 11:31N 37°55' E 023°06'0 0.0
2017-Mar-25 10:19N 37°55' E 023°06'0 0.0
2017-Mar-25 09:22N 37°55' E 023°06'0 0.0
2017-Mar-25 08:31N 37°55' E 023°06'0 0.0
2017-Mar-25 07:28N 37°55' E 023°06'0 0.0
2017-Mar-25 06:31N 37°55' E 023°06'0 0.0
2017-Mar-25 05:25N 37°55' E 023°06'0 0.0
2017-Mar-25 04:31N 37°55' E 023°06'0 0.0
2017-Mar-25 03:31N 37°55' E 023°06'0 0.0
2017-Mar-25 02:31N 37°55' E 023°06'0 0.0
2017-Mar-25 01:28N 37°55' E 023°06'0 0.1
2017-Mar-25 00:31N 37°55' E 023°06'0 0.1
2017-Mar-24 23:31N 37°55' E 023°06'0 0.0
2017-Mar-24 22:31N 37°55' E 023°06'0 0.0
2017-Mar-24 21:31N 37°55' E 023°06'0 0.0
2017-Mar-24 20:31N 37°55' E 023°06'0 0.0
2017-Mar-24 19:31N 37°55' E 023°06'0 0.0
2017-Mar-24 18:31N 37°55' E 023°06'0 0.0
2017-Mar-24 17:31N 37°55' E 023°06'0 0.0
2017-Mar-24 16:31N 37°55' E 023°06'0 0.0
2017-Mar-24 15:31N 37°55' E 023°06'0 0.0
2017-Mar-24 14:31N 37°55' E 023°06'0 0.0
2017-Mar-24 13:31N 37°55' E 023°06'0 0.0
2017-Mar-24 12:31N 37°55' E 023°06'6 6.6
2017-Mar-24 11:33N 37°50' E 023°11'8 8.2
2017-Mar-24 10:33N 37°43' E 023°16'8 8.4
2017-Mar-24 09:34N 37°38' E 023°25'8 7.5
2017-Mar-24 08:33N 37°32' E 023°31'10 7.8
2017-Mar-24 07:14N 37°23' E 023°36'5 7.6
2017-Mar-24 06:33N 37°18' E 023°37'  
2017-Mar-21 12:13N 37°55' E 023°05'0 0.0
2017-Mar-21 11:31N 37°55' E 023°05'0 0.0
2017-Mar-21 06:15N 37°55' E 023°05'0 0.0
2017-Mar-21 05:20N 37°55' E 023°05'0 0.0
2017-Mar-21 04:08N 37°55' E 023°05'0 0.0
2017-Mar-21 03:24N 37°55' E 023°05'0 0.0
2017-Mar-21 02:17N 37°55' E 023°05'0 0.0
2017-Mar-20 23:33N 37°55' E 023°05'0 0.0
2017-Mar-20 22:12N 37°55' E 023°05'0 0.0
2017-Mar-20 20:21N 37°55' E 023°05'0 0.0
2017-Mar-20 19:26N 37°55' E 023°05'0 0.0
2017-Mar-20 18:32N 37°55' E 023°05'1 0.5
2017-Mar-20 17:22N 37°55' E 023°06'0 0.0
2017-Mar-20 16:32N 37°55' E 023°06'0 0.0
2017-Mar-20 15:32N 37°55' E 023°06'0 0.0
2017-Mar-20 14:31N 37°55' E 023°06'0 0.0
2017-Mar-20 10:28N 37°55' E 023°06'0 0.0
2017-Mar-20 09:12N 37°55' E 023°06'0 0.0
2017-Mar-20 08:30N 37°55' E 023°06'0 0.0
2017-Mar-20 07:17N 37°55' E 023°06'0 0.0
2017-Mar-20 05:29N 37°55' E 023°06'0 0.0
2017-Mar-20 04:31N 37°55' E 023°06'0 0.0
2017-Mar-20 03:25N 37°55' E 023°06'0 0.0
2017-Mar-20 02:31N 37°55' E 023°06'0 0.0
2017-Mar-20 01:31N 37°55' E 023°06'0 0.0
2017-Mar-20 00:31N 37°55' E 023°06'0 0.0
2017-Mar-19 23:13N 37°55' E 023°06'0 0.0
2017-Mar-19 22:31N 37°55' E 023°06'0 0.0
2017-Mar-19 21:31N 37°55' E 023°06'1 0.5
2017-Mar-19 20:27N 37°55' E 023°05'0 0.1
2017-Mar-19 19:34N 37°55' E 023°05'0 0.0
2017-Mar-19 18:31N 37°55' E 023°05'0 0.0
2017-Mar-19 17:30N 37°55' E 023°05'0 0.0
2017-Mar-19 16:33N 37°55' E 023°05'0 0.0
2017-Mar-19 15:24N 37°55' E 023°05'1 0.7
2017-Mar-19 14:33N 37°55' E 023°06'0 0.1
2017-Mar-19 13:33N 37°55' E 023°06'0 0.0
2017-Mar-19 12:33N 37°55' E 023°06'4 3.7
2017-Mar-19 11:33N 37°54' E 023°10'9 8.7
2017-Mar-19 10:34N 37°51' E 023°21'9 8.6
2017-Mar-19 09:33N 37°51' E 023°32'7 7.0
2017-Mar-19 08:33N 37°57' E 023°35'0 0.0
2017-Mar-19 07:30N 37°57' E 023°35'0 0.0
2017-Mar-19 06:33N 37°57' E 023°35'0 0.0
2017-Mar-19 05:33N 37°57' E 023°35'0 0.0
2017-Mar-19 04:18N 37°57' E 023°35'0 0.0
2017-Mar-19 03:33N 37°57' E 023°35'0 0.0
2017-Mar-19 02:33N 37°57' E 023°35'0 0.0
2017-Mar-19 01:33N 37°57' E 023°35'0 0.0
2017-Mar-19 00:33N 37°57' E 023°35'0 0.0
2017-Mar-18 23:33N 37°57' E 023°35'0 0.0
2017-Mar-18 22:33N 37°57' E 023°35'0 0.0
2017-Mar-18 21:33N 37°57' E 023°35'0 0.0
2017-Mar-18 20:33N 37°57' E 023°35'0 0.0
2017-Mar-18 19:33N 37°57' E 023°35'0 0.0
2017-Mar-18 18:33N 37°57' E 023°35'0 0.0
2017-Mar-18 17:33N 37°57' E 023°35'0 0.0
2017-Mar-18 16:33N 37°57' E 023°35'0 0.0
2017-Mar-18 15:33N 37°57' E 023°35'0 0.0
2017-Mar-18 14:27N 37°57' E 023°35'0 0.0
2017-Mar-18 13:12N 37°57' E 023°35'0 0.0
2017-Mar-18 12:33N 37°57' E 023°35'0 0.0
2017-Mar-18 11:30N 37°57' E 023°35'0 0.0
2017-Mar-18 10:33N 37°57' E 023°35'0 0.0
2017-Mar-18 09:33N 37°57' E 023°35'0 0.0
2017-Mar-18 07:33N 37°57' E 023°35'2 2.2
2017-Mar-18 06:33N 37°55' E 023°34'1 0.5
2017-Mar-18 05:33N 37°55' E 023°33'0 0.0
2017-Mar-18 04:33N 37°55' E 023°33'0 0.0
2017-Mar-18 03:33N 37°55' E 023°33'0 0.0
2017-Mar-18 02:33N 37°55' E 023°33'0 0.0
2017-Mar-18 01:30N 37°55' E 023°33'0 0.0
2017-Mar-18 00:33N 37°55' E 023°33'0 0.0
2017-Mar-17 23:33N 37°55' E 023°33'0 0.0
2017-Mar-17 22:30N 37°55' E 023°33'0 0.0
2017-Mar-17 21:30N 37°55' E 023°33'2 2.1
2017-Mar-17 20:33N 37°54' E 023°32'8 8.2
2017-Mar-17 19:34N 37°51' E 023°22'9 8.6
2017-Mar-17 18:33N 37°53' E 023°11'  
Track history (hours):
 
Tides and Currents Weather Stations Pressure Air Temp Water Temp Dewpoint Dewpoint Depression Visibility Wind Speed Wind Dir Waves Ship Positions

M/T Arcadia

Last reported at 2017-Mar-27 12:33 UTC. Time now 2017-Mar-29 01:32 UTC.
Position N 37°24' E 023°29'.

Length 76 m; draft 4.5 m.

Type: Tanker. MMSI: 240560000.

Date/timePositionNaut miles runAvg speedWind from/ knotsBaromVisibWave heightAir tempDewpointWater temp
2017-Mar-27 12:33N 37°24' E 023°29'8 8.0
2017-Mar-27 11:32N 37°32' E 023°32'9 9.3
2017-Mar-27 10:33N 37°38' E 023°24'9 8.4
2017-Mar-27 09:32N 37°44' E 023°16'9 8.8
2017-Mar-27 08:33N 37°51' E 023°10'5 4.8
2017-Mar-27 07:28N 37°55' E 023°05'0 0.0
2017-Mar-27 06:34N 37°55' E 023°05'0 0.0
2017-Mar-27 05:34N 37°55' E 023°05'0 0.0
2017-Mar-27 04:34N 37°55' E 023°05'0 0.0
2017-Mar-27 03:28N 37°55' E 023°05'0 0.0
2017-Mar-27 02:34N 37°55' E 023°05'0 0.0
2017-Mar-27 01:28N 37°55' E 023°05'0 0.0
2017-Mar-27 00:34N 37°55' E 023°05'0 0.0
2017-Mar-26 23:10N 37°55' E 023°05'0 0.0
2017-Mar-26 19:22N 37°55' E 023°05'0 0.0
2017-Mar-26 18:16N 37°55' E 023°05'0 0.0
2017-Mar-26 17:22N 37°55' E 023°05'0 0.0
2017-Mar-26 16:28N 37°55' E 023°05'0 0.1
2017-Mar-26 15:33N 37°55' E 023°05'1 0.6
2017-Mar-26 14:33N 37°55' E 023°06'0 0.0
2017-Mar-26 13:30N 37°55' E 023°06'0 0.0
2017-Mar-26 12:33N 37°55' E 023°06'0 0.0
2017-Mar-26 11:33N 37°55' E 023°06'0 0.0
2017-Mar-26 10:28N 37°55' E 023°06'0 0.0
2017-Mar-26 09:19N 37°55' E 023°06'0 0.0
2017-Mar-26 08:31N 37°55' E 023°06'0 0.0
2017-Mar-26 07:28N 37°55' E 023°06'0 0.0
2017-Mar-26 06:31N 37°55' E 023°06'0 0.0
2017-Mar-26 05:28N 37°55' E 023°06'0 0.0
2017-Mar-26 04:25N 37°55' E 023°06'0 0.0
2017-Mar-26 03:31N 37°55' E 023°06'0 0.0
2017-Mar-26 02:19N 37°55' E 023°06'0 0.0
2017-Mar-26 01:22N 37°55' E 023°06'0 0.0
2017-Mar-26 00:28N 37°55' E 023°06'0 0.0
2017-Mar-25 23:19N 37°55' E 023°06'0 0.0
2017-Mar-25 22:31N 37°55' E 023°06'0 0.0
2017-Mar-25 21:31N 37°55' E 023°06'0 0.0
2017-Mar-25 20:25N 37°55' E 023°06'0 0.0
2017-Mar-25 19:31N 37°55' E 023°06'0 0.0
2017-Mar-25 18:31N 37°55' E 023°06'0 0.0
2017-Mar-25 17:31N 37°55' E 023°06'0 0.0
2017-Mar-25 16:31N 37°55' E 023°06'0 0.0
2017-Mar-25 15:31N 37°55' E 023°06'0 0.1
2017-Mar-25 14:31N 37°55' E 023°06'0 0.1
2017-Mar-25 13:28N 37°55' E 023°06'0 0.0
2017-Mar-25 12:31N 37°55' E 023°06'0 0.0
2017-Mar-25 11:31N 37°55' E 023°06'0 0.0
2017-Mar-25 10:19N 37°55' E 023°06'0 0.0
2017-Mar-25 09:22N 37°55' E 023°06'0 0.0
2017-Mar-25 08:31N 37°55' E 023°06'0 0.0
2017-Mar-25 07:28N 37°55' E 023°06'0 0.0
2017-Mar-25 06:31N 37°55' E 023°06'0 0.0
2017-Mar-25 05:25N 37°55' E 023°06'0 0.0
2017-Mar-25 04:31N 37°55' E 023°06'0 0.0
2017-Mar-25 03:31N 37°55' E 023°06'0 0.0
2017-Mar-25 02:31N 37°55' E 023°06'0 0.0
2017-Mar-25 01:28N 37°55' E 023°06'0 0.1
2017-Mar-25 00:31N 37°55' E 023°06'0 0.1
2017-Mar-24 23:31N 37°55' E 023°06'0 0.0
2017-Mar-24 22:31N 37°55' E 023°06'0 0.0
2017-Mar-24 21:31N 37°55' E 023°06'0 0.0
2017-Mar-24 20:31N 37°55' E 023°06'0 0.0
2017-Mar-24 19:31N 37°55' E 023°06'0 0.0
2017-Mar-24 18:31N 37°55' E 023°06'0 0.0
2017-Mar-24 17:31N 37°55' E 023°06'0 0.0
2017-Mar-24 16:31N 37°55' E 023°06'0 0.0
2017-Mar-24 15:31N 37°55' E 023°06'0 0.0
2017-Mar-24 14:31N 37°55' E 023°06'0 0.0
2017-Mar-24 13:31N 37°55' E 023°06'0 0.0
2017-Mar-24 12:31N 37°55' E 023°06'6 6.6
2017-Mar-24 11:33N 37°50' E 023°11'8 8.2
2017-Mar-24 10:33N 37°43' E 023°16'8 8.4
2017-Mar-24 09:34N 37°38' E 023°25'8 7.5
2017-Mar-24 08:33N 37°32' E 023°31'10 7.8
2017-Mar-24 07:14N 37°23' E 023°36'5 7.6
2017-Mar-24 06:33N 37°18' E 023°37'  
2017-Mar-21 12:13N 37°55' E 023°05'0 0.0
2017-Mar-21 11:31N 37°55' E 023°05'0 0.0
2017-Mar-21 06:15N 37°55' E 023°05'0 0.0
2017-Mar-21 05:20N 37°55' E 023°05'0 0.0
2017-Mar-21 04:08N 37°55' E 023°05'0 0.0
2017-Mar-21 03:24N 37°55' E 023°05'0 0.0
2017-Mar-21 02:17N 37°55' E 023°05'0 0.0
2017-Mar-20 23:33N 37°55' E 023°05'0 0.0
2017-Mar-20 22:12N 37°55' E 023°05'0 0.0
2017-Mar-20 20:21N 37°55' E 023°05'0 0.0
2017-Mar-20 19:26N 37°55' E 023°05'0 0.0
2017-Mar-20 18:32N 37°55' E 023°05'1 0.5
2017-Mar-20 17:22N 37°55' E 023°06'0 0.0
2017-Mar-20 16:32N 37°55' E 023°06'0 0.0
2017-Mar-20 15:32N 37°55' E 023°06'0 0.0
2017-Mar-20 14:31N 37°55' E 023°06'0 0.0
2017-Mar-20 10:28N 37°55' E 023°06'0 0.0
2017-Mar-20 09:12N 37°55' E 023°06'0 0.0
2017-Mar-20 08:30N 37°55' E 023°06'0 0.0
2017-Mar-20 07:17N 37°55' E 023°06'0 0.0
2017-Mar-20 05:29N 37°55' E 023°06'0 0.0
2017-Mar-20 04:31N 37°55' E 023°06'0 0.0
2017-Mar-20 03:25N 37°55' E 023°06'0 0.0
2017-Mar-20 02:31N 37°55' E 023°06'0 0.0
2017-Mar-20 01:31N 37°55' E 023°06'0 0.0
2017-Mar-20 00:31N 37°55' E 023°06'0 0.0
2017-Mar-19 23:13N 37°55' E 023°06'0 0.0
2017-Mar-19 22:31N 37°55' E 023°06'0 0.0
2017-Mar-19 21:31N 37°55' E 023°06'1 0.5
2017-Mar-19 20:27N 37°55' E 023°05'0 0.1
2017-Mar-19 19:34N 37°55' E 023°05'0 0.0
2017-Mar-19 18:31N 37°55' E 023°05'0 0.0
2017-Mar-19 17:30N 37°55' E 023°05'0 0.0
2017-Mar-19 16:33N 37°55' E 023°05'0 0.0
2017-Mar-19 15:24N 37°55' E 023°05'1 0.7
2017-Mar-19 14:33N 37°55' E 023°06'0 0.1
2017-Mar-19 13:33N 37°55' E 023°06'0 0.0
2017-Mar-19 12:33N 37°55' E 023°06'4 3.7
2017-Mar-19 11:33N 37°54' E 023°10'9 8.7
2017-Mar-19 10:34N 37°51' E 023°21'9 8.6
2017-Mar-19 09:33N 37°51' E 023°32'7 7.0
2017-Mar-19 08:33N 37°57' E 023°35'0 0.0
2017-Mar-19 07:30N 37°57' E 023°35'0 0.0
2017-Mar-19 06:33N 37°57' E 023°35'0 0.0
2017-Mar-19 05:33N 37°57' E 023°35'0 0.0
2017-Mar-19 04:18N 37°57' E 023°35'0 0.0
2017-Mar-19 03:33N 37°57' E 023°35'0 0.0
2017-Mar-19 02:33N 37°57' E 023°35'0 0.0
2017-Mar-19 01:33N 37°57' E 023°35'0 0.0
2017-Mar-19 00:33N 37°57' E 023°35'0 0.0
2017-Mar-18 23:33N 37°57' E 023°35'0 0.0
2017-Mar-18 22:33N 37°57' E 023°35'0 0.0
2017-Mar-18 21:33N 37°57' E 023°35'0 0.0
2017-Mar-18 20:33N 37°57' E 023°35'0 0.0
2017-Mar-18 19:33N 37°57' E 023°35'0 0.0
2017-Mar-18 18:33N 37°57' E 023°35'0 0.0
2017-Mar-18 17:33N 37°57' E 023°35'0 0.0
2017-Mar-18 16:33N 37°57' E 023°35'0 0.0
2017-Mar-18 15:33N 37°57' E 023°35'0 0.0
2017-Mar-18 14:27N 37°57' E 023°35'0 0.0
2017-Mar-18 13:12N 37°57' E 023°35'0 0.0
2017-Mar-18 12:33N 37°57' E 023°35'0 0.0
2017-Mar-18 11:30N 37°57' E 023°35'0 0.0
2017-Mar-18 10:33N 37°57' E 023°35'0 0.0
2017-Mar-18 09:33N 37°57' E 023°35'0 0.0
2017-Mar-18 07:33N 37°57' E 023°35'2 2.2
2017-Mar-18 06:33N 37°55' E 023°34'1 0.5
2017-Mar-18 05:33N 37°55' E 023°33'0 0.0
2017-Mar-18 04:33N 37°55' E 023°33'0 0.0
2017-Mar-18 03:33N 37°55' E 023°33'0 0.0
2017-Mar-18 02:33N 37°55' E 023°33'0 0.0
2017-Mar-18 01:30N 37°55' E 023°33'0 0.0
2017-Mar-18 00:33N 37°55' E 023°33'0 0.0
2017-Mar-17 23:33N 37°55' E 023°33'0 0.0
2017-Mar-17 22:30N 37°55' E 023°33'0 0.0
2017-Mar-17 21:30N 37°55' E 023°33'2 2.1
2017-Mar-17 20:33N 37°54' E 023°32'8 8.2
2017-Mar-17 19:34N 37°51' E 023°22'9 8.6
2017-Mar-17 18:33N 37°53' E 023°11'  

Dump ship's entire track history